Time;durP1;ratioP1;P1;durP2;ratioP2;P2;SDS_P1;SDS_P2;PMS_P1;PMS_P2;Temp;Humidity;BMP_temperature;BMP_pressure;BME280_temperature;BME280_humidity;BME280_pressure;Samples;Min_cycle;Max_cycle;Signal;HPM_P1;HPM_P2
2022/03/16 00:00:42;;;;;;;48.17;25.87;;;;;;;6.87;58.77;100677.03;5071280;28;20225;-58
2022/03/16 00:03:09;;;;;;;57.33;30.93;;;;;;;6.89;58.71;100667.78;5070147;28;20468;-58
2022/03/16 00:05:36;;;;;;;60.70;27.77;;;;;;;6.99;58.25;100666.53;5075969;28;20200;-59
2022/03/16 00:08:05;;;;;;;61.73;27.40;;;;;;;7.03;57.59;100664.19;5079888;28;20208;-60
2022/03/16 00:10:32;;;;;;;37.03;24.00;;;;;;;6.99;58.41;100679.31;5076860;28;20205;-60
2022/03/16 00:12:59;;;;;;;33.43;23.03;;;;;;;6.98;58.54;100664.78;5073302;28;20200;-60
2022/03/16 00:15:26;;;;;;;29.43;21.73;;;;;;;6.92;57.87;100662.78;5075459;28;20276;-58
2022/03/16 00:17:53;;;;;;;34.70;23.20;;;;;;;6.93;58.03;100664.56;5081265;28;20252;-58
2022/03/16 00:20:20;;;;;;;37.73;24.47;;;;;;;6.94;58.82;100668.88;5079379;28;20186;-58
2022/03/16 00:22:46;;;;;;;38.73;24.47;;;;;;;6.85;59.14;100658.19;5080596;28;20189;-59
2022/03/16 00:25:15;;;;;;;32.67;22.67;;;;;;;6.76;59.70;100664.50;5081152;28;20182;-58
2022/03/16 00:27:42;;;;;;;38.53;22.80;;;;;;;6.77;60.45;100656.06;5073205;28;20277;-58
2022/03/16 00:30:10;;;;;;;30.07;21.30;;;;;;;6.69;59.67;100655.69;5070401;28;20232;-58
2022/03/16 00:32:37;;;;;;;38.70;19.80;;;;;;;6.67;60.33;100644.53;5070759;28;20312;-58
2022/03/16 00:35:04;;;;;;;25.67;19.57;;;;;;;6.66;60.79;100640.22;5070621;28;20190;-58
2022/03/16 00:37:32;;;;;;;36.87;20.83;;;;;;;6.69;61.30;100642.03;5070488;28;20281;-58
2022/03/16 00:39:59;;;;;;;27.47;20.20;;;;;;;6.63;61.41;100641.72;5070586;28;20201;-58
2022/03/16 00:42:27;;;;;;;25.00;18.37;;;;;;;6.50;62.12;100641.13;5070356;28;20675;-58
2022/03/16 00:44:55;;;;;;;23.83;16.93;;;;;;;6.49;61.99;100621.50;5070228;28;20762;-58
2022/03/16 00:47:21;;;;;;;25.67;20.25;;;;;;;6.52;62.41;100636.97;5069517;28;20445;-58
2022/03/16 00:49:48;;;;;;;24.87;17.70;;;;;;;6.54;61.63;100627.69;5070278;28;20594;-58
2022/03/16 00:52:15;;;;;;;21.20;16.73;;;;;;;6.56;61.99;100629.47;5070339;28;20195;-58
2022/03/16 00:54:42;;;;;;;24.03;17.63;;;;;;;6.48;62.28;100632.50;5070051;28;20198;-58
2022/03/16 00:57:09;;;;;;;22.33;16.50;;;;;;;6.39;62.57;100611.63;5070424;28;20205;-58
2022/03/16 00:59:39;;;;;;;22.87;16.57;;;;;;;6.35;61.72;100624.13;5070120;28;20219;-58
2022/03/16 01:02:06;;;;;;;33.37;18.87;;;;;;;6.35;62.75;100630.13;5070285;28;20197;-58
2022/03/16 01:04:33;;;;;;;25.70;17.97;;;;;;;6.39;62.41;100623.50;5070329;28;20196;-58
2022/03/16 01:06:59;;;;;;;25.27;16.73;;;;;;;6.41;62.19;100610.03;5069977;28;20286;-58
2022/03/16 01:09:26;;;;;;;27.87;19.20;;;;;;;6.35;62.33;100625.03;5069948;28;20296;-58
2022/03/16 01:11:53;;;;;;;32.37;19.97;;;;;;;6.29;62.79;100624.69;5070014;28;20663;-58
2022/03/16 01:14:20;;;;;;;28.87;19.97;;;;;;;6.24;62.65;100626.16;5070144;28;20191;-61
2022/03/16 01:16:48;;;;;;;31.67;21.47;;;;;;;6.23;62.98;100618.44;5070458;28;20585;-57
2022/03/16 01:19:15;;;;;;;28.23;20.07;;;;;;;6.24;63.23;100620.16;5069960;28;20718;-58
2022/03/16 01:21:44;;;;;;;25.17;19.10;;;;;;;6.21;62.84;100609.78;5069936;28;20198;-57
2022/03/16 01:24:11;;;;;;;24.83;19.20;;;;;;;6.29;62.57;100611.09;5069917;28;20192;-58
2022/03/16 01:26:38;;;;;;;25.77;18.40;;;;;;;6.31;62.57;100615.47;5069865;28;20200;-58
2022/03/16 01:29:05;;;;;;;27.10;18.30;;;;;;;6.24;62.88;100610.84;5069763;28;20578;-58
2022/03/16 01:31:32;;;;;;;26.03;18.93;;;;;;;6.22;63.05;100599.69;5069890;28;20202;-58
2022/03/16 01:34:00;;;;;;;30.30;20.87;;;;;;;6.18;63.09;100587.53;5069798;28;20195;-57
2022/03/16 01:36:27;;;;;;;28.60;20.27;;;;;;;6.17;63.23;100595.16;5069819;28;20193;-57
2022/03/16 01:38:54;;;;;;;35.70;22.23;;;;;;;6.09;63.88;100593.88;5070071;28;20285;-57
2022/03/16 01:41:21;;;;;;;31.97;21.50;;;;;;;6.13;63.47;100580.47;5070056;28;20212;-57
2022/03/16 01:43:48;;;;;;;32.17;20.47;;;;;;;6.07;63.08;100578.47;5070009;28;20197;-57
2022/03/16 01:46:14;;;;;;;27.30;19.03;;;;;;;6.06;63.61;100570.75;5069785;28;20713;-57
2022/03/16 01:48:41;;;;;;;29.33;19.47;;;;;;;6.04;63.56;100580.91;5069612;28;20224;-58
2022/03/16 01:51:10;;;;;;;30.67;21.75;;;;;;;6.09;64.29;100558.16;5069168;28;20434;-58
2022/03/16 01:53:37;;;;;;;30.83;19.10;;;;;;;6.15;63.90;100544.06;5069917;28;20194;-57
2022/03/16 01:56:04;;;;;;;31.00;19.67;;;;;;;6.12;63.65;100536.25;5069930;28;20199;-58
2022/03/16 01:58:31;;;;;;;31.43;20.63;;;;;;;6.00;64.08;100534.72;5069504;28;20299;-57
2022/03/16 02:00:57;;;;;;;28.77;21.17;;;;;;;5.90;64.11;100518.97;5069939;28;20203;-56
2022/03/16 02:03:24;;;;;;;30.30;21.10;;;;;;;5.91;64.17;100512.16;5072988;28;20198;-57
2022/03/16 02:05:52;;;;;;;31.27;23.00;;;;;;;5.91;63.16;100507.97;5073008;28;20284;-57
2022/03/16 02:08:20;;;;;;;30.40;23.43;;;;;;;5.92;63.72;100503.72;5073049;28;20756;-57
2022/03/16 02:10:47;;;;;;;34.13;24.03;;;;;;;5.99;62.62;100505.78;5072788;28;20214;-58
2022/03/16 02:13:14;;;;;;;31.80;25.43;;;;;;;5.98;62.36;100498.94;5072840;28;20286;-57
2022/03/16 02:15:41;;;;;;;34.57;25.73;;;;;;;6.03;62.49;100499.16;5072958;28;20208;-57
2022/03/16 02:18:08;;;;;;;38.00;26.70;;;;;;;6.07;61.97;100494.28;5072717;28;20195;-58
2022/03/16 02:20:35;;;;;;;32.17;23.67;;;;;;;5.87;61.81;100466.94;5072766;28;20188;-57
2022/03/16 02:23:05;;;;;;;33.07;24.53;;;;;;;6.05;62.70;100506.09;5072713;28;20276;-57
2022/03/16 02:25:33;;;;;;;43.17;26.57;;;;;;;6.05;62.59;100518.84;5073156;28;20197;-57
2022/03/16 02:28:00;;;;;;;46.38;32.92;;;;;;;5.97;62.88;100515.03;5072510;28;20441;-58
2022/03/16 02:30:29;;;;;;;41.83;30.63;;;;;;;5.98;63.63;100504.06;5072605;28;20220;-57
2022/03/16 02:32:56;;;;;;;46.73;32.63;;;;;;;5.69;63.16;100450.66;5072863;28;20212;-57
2022/03/16 02:35:23;;;;;;;49.67;31.53;;;;;;;5.99;62.94;100503.22;5072890;28;20543;-58
2022/03/16 02:37:50;;;;;;;43.67;31.77;;;;;;;5.98;62.95;100492.97;5072768;28;20198;-58
2022/03/16 02:40:20;;;;;;;42.83;30.20;;;;;;;6.02;62.48;100500.84;5072564;28;20198;-58
2022/03/16 02:42:47;;;;;;;41.77;31.20;;;;;;;6.00;63.65;100502.44;5068515;28;20547;-58
2022/03/16 02:45:15;;;;;;;41.83;30.53;;;;;;;6.02;63.26;100489.75;5052470;28;20288;-58
2022/03/16 02:47:42;;;;;;;45.03;32.60;;;;;;;5.91;63.19;100487.56;5052327;28;20195;-58
2022/03/16 02:50:10;;;;;;;45.90;32.77;;;;;;;5.77;63.85;100454.47;5052349;28;20218;-58
2022/03/16 02:52:37;;;;;;;43.90;31.80;;;;;;;6.00;63.55;100488.81;5052646;28;20197;-58
2022/03/16 02:55:06;;;;;;;44.70;31.27;;;;;;;5.99;63.57;100492.19;5051534;28;20199;-58
2022/03/16 02:57:34;;;;;;;43.77;31.43;;;;;;;5.96;63.76;100504.78;5052318;28;20202;-58
2022/03/16 03:00:01;;;;;;;44.23;32.80;;;;;;;5.71;64.05;100464.38;5052059;28;20224;-59
2022/03/16 03:02:28;;;;;;;48.87;31.80;;;;;;;5.85;64.28;100496.59;5052353;28;20191;-57
2022/03/16 03:04:55;;;;;;;44.07;30.50;;;;;;;5.83;63.95;100481.16;5052129;28;20661;-57
2022/03/16 03:07:22;;;;;;;42.97;32.73;;;;;;;5.83;64.56;100482.81;5052372;28;20607;-57
2022/03/16 03:09:49;;;;;;;43.40;30.93;;;;;;;5.79;64.03;100483.47;5051906;28;20227;-57
2022/03/16 03:12:16;;;;;;;47.23;31.07;;;;;;;5.89;64.18;100488.28;5051765;28;20520;-57
2022/03/16 03:14:44;;;;;;;47.80;30.63;;;;;;;5.90;63.31;100487.50;5051258;28;20551;-56
2022/03/16 03:17:11;;;;;;;41.93;31.50;;;;;;;5.97;63.08;100492.09;5052249;28;20203;-57
2022/03/16 03:19:38;;;;;;;41.63;30.50;;;;;;;5.95;62.76;100493.69;5051854;28;20192;-57
2022/03/16 03:22:05;;;;;;;45.30;32.07;;;;;;;5.96;63.04;100487.78;5051951;28;20202;-57
2022/03/16 03:24:32;;;;;;;42.87;30.63;;;;;;;5.95;63.47;100483.50;5051792;28;20252;-57
2022/03/16 03:26:59;;;;;;;49.20;31.70;;;;;;;5.96;63.15;100485.22;5052122;28;20192;-57
2022/03/16 03:29:26;;;;;;;45.13;31.53;;;;;;;5.96;63.21;100481.81;5051987;28;20211;-57
2022/03/16 03:31:54;;;;;;;50.93;33.03;;;;;;;5.91;62.90;100461.16;5051533;28;20739;-57
2022/03/16 03:34:21;;;;;;;41.53;28.90;;;;;;;6.01;63.19;100477.81;5051655;28;20274;-57
2022/03/16 03:36:48;;;;;;;42.53;31.47;;;;;;;5.93;63.34;100460.44;5051611;28;20189;-57
2022/03/16 03:39:15;;;;;;;40.93;30.83;;;;;;;5.97;63.36;100460.59;5051407;28;20649;-57
2022/03/16 03:41:43;;;;;;;42.77;31.60;;;;;;;6.01;63.50;100463.41;5051292;28;20283;-57
2022/03/16 03:44:10;;;;;;;51.47;35.92;;;;;;;6.10;62.76;100447.66;5050054;28;20432;-57
2022/03/16 03:46:37;;;;;;;44.20;32.20;;;;;;;6.18;63.46;100441.25;5051346;28;20281;-57
2022/03/16 03:49:05;;;;;;;45.17;32.53;;;;;;;6.16;62.40;100446.28;5051232;28;20563;-57
2022/03/16 03:51:32;;;;;;;41.27;29.97;;;;;;;6.17;62.75;100447.16;5051086;28;20193;-57
2022/03/16 03:53:59;;;;;;;43.63;31.20;;;;;;;6.15;63.54;100452.19;5051154;28;20200;-58
2022/03/16 03:56:26;;;;;;;41.30;30.97;;;;;;;6.15;62.99;100439.44;5051020;28;20286;-57
2022/03/16 03:58:53;;;;;;;42.47;31.63;;;;;;;6.14;63.81;100447.88;5050952;28;20231;-58
2022/03/16 04:01:20;;;;;;;41.63;30.77;;;;;;;6.10;63.31;100438.31;5050946;28;20195;-58
2022/03/16 04:03:47;;;;;;;41.43;30.10;;;;;;;6.14;62.80;100442.78;5050924;28;20296;-58
2022/03/16 04:06:15;;;;;;;43.33;31.17;;;;;;;6.16;62.73;100432.63;5050788;28;20188;-58
2022/03/16 04:08:43;;;;;;;55.20;29.97;;;;;;;6.19;62.71;100431.13;5050854;28;20614;-58
2022/03/16 04:11:11;;;;;;;46.50;31.63;;;;;;;6.18;62.17;100433.59;5051038;28;20223;-57
2022/03/16 04:13:38;;;;;;;43.03;30.17;;;;;;;6.18;62.58;100442.09;5050602;28;20190;-57
2022/03/16 04:16:06;;;;;;;40.10;30.47;;;;;;;6.17;62.64;100440.38;5050732;28;20691;-58
2022/03/16 04:18:33;;;;;;;43.57;29.57;;;;;;;6.16;63.04;100440.28;5050854;28;20193;-58
2022/03/16 04:21:00;;;;;;;42.87;29.57;;;;;;;6.15;62.94;100424.13;5050570;28;20670;-58
2022/03/16 04:23:28;;;;;;;48.30;33.30;;;;;;;6.03;62.90;100430.28;5050715;28;20203;-58
2022/03/16 04:25:55;;;;;;;49.20;34.63;;;;;;;5.96;63.98;100434.22;5050452;28;20198;-58
2022/03/16 04:28:22;;;;;;;47.53;33.90;;;;;;;5.92;64.05;100440.84;5050845;28;20195;-58
2022/03/16 04:30:48;;;;;;;58.17;35.07;;;;;;;5.85;64.77;100431.13;5050576;28;20955;-58
2022/03/16 04:33:15;;;;;;;45.47;33.27;;;;;;;5.82;64.95;100430.94;5050651;28;20201;-58
2022/03/16 04:35:42;;;;;;;46.13;33.33;;;;;;;5.79;65.13;100435.03;5065131;28;20649;-59
2022/03/16 04:38:09;;;;;;;55.47;33.73;;;;;;;5.81;65.21;100448.72;5070287;28;20192;-59
2022/03/16 04:40:37;;;;;;;55.07;34.87;;;;;;;5.84;66.01;100454.00;5070733;28;20190;-58
2022/03/16 04:43:04;;;;;;;47.43;34.80;;;;;;;5.84;66.25;100448.88;5070613;28;20205;-58
2022/03/16 04:45:31;;;;;;;48.67;33.80;;;;;;;5.82;66.06;100432.66;5070488;28;20192;-58
2022/03/16 04:47:58;;;;;;;46.17;34.00;;;;;;;5.88;66.10;100426.19;5070495;28;20203;-58
2022/03/16 04:50:25;;;;;;;44.70;33.60;;;;;;;5.90;65.58;100433.94;5070411;28;20971;-58
2022/03/16 04:52:52;;;;;;;52.53;34.17;;;;;;;5.89;66.24;100430.50;5070318;28;20191;-58
2022/03/16 04:55:19;;;;;;;49.00;33.13;;;;;;;5.92;65.80;100423.00;5070000;28;20201;-58
2022/03/16 04:57:47;;;;;;;64.00;42.25;;;;;;;5.84;67.95;100426.81;5069922;28;20440;-58
2022/03/16 05:00:15;;;;;;;51.13;35.40;;;;;;;5.90;67.74;100423.72;5069952;28;20230;-58
2022/03/16 05:02:42;;;;;;;50.70;36.10;;;;;;;5.84;68.36;100428.50;5069861;28;20197;-58
2022/03/16 05:05:10;;;;;;;61.47;37.20;;;;;;;5.87;68.34;100427.00;5070146;28;20241;-58
2022/03/16 05:07:37;;;;;;;57.28;41.35;;;;;;;5.89;68.24;100409.22;5068767;28;20446;-58
2022/03/16 05:10:05;;;;;;;61.60;38.03;;;;;;;5.90;68.12;100416.06;5070009;28;20609;-58
2022/03/16 05:12:37;;;;;;;63.83;36.47;;;;;;;5.95;68.15;100422.28;5069928;28;20206;-57
2022/03/16 05:15:08;;;;;;;55.50;34.50;;;;;;;5.94;67.21;100421.41;5069890;28;20738;-57
2022/03/16 05:17:34;;;;;;;56.87;34.77;;;;;;;5.89;68.22;100416.88;5069756;28;20284;-58
2022/03/16 05:20:01;;;;;;;54.87;33.40;;;;;;;5.94;68.37;100413.75;5069541;28;20366;-57
2022/03/16 05:22:28;;;;;;;55.23;36.63;;;;;;;5.92;67.55;100411.91;5069965;28;20276;-59
2022/03/16 05:24:55;;;;;;;67.50;41.60;;;;;;;5.97;67.37;100407.91;5069948;28;20200;-58
2022/03/16 05:27:22;;;;;;;81.77;44.17;;;;;;;5.92;65.67;100407.69;5069811;28;20665;-58
2022/03/16 05:29:49;;;;;;;86.43;46.20;;;;;;;5.94;65.31;100421.41;5069769;28;20284;-58
2022/03/16 05:32:17;;;;;;;75.97;43.93;;;;;;;5.95;65.70;100401.88;5070166;28;20195;-58
2022/03/16 05:34:44;;;;;;;70.38;41.95;;;;;;;5.95;65.57;100399.31;5069571;28;20448;-58
2022/03/16 05:37:11;;;;;;;71.20;38.90;;;;;;;5.94;65.25;100390.78;5071708;28;20206;-58
2022/03/16 05:39:38;;;;;;;74.67;39.90;;;;;;;5.98;65.08;100391.81;5073496;28;20232;-58
2022/03/16 05:42:07;;;;;;;58.20;38.70;;;;;;;6.01;65.46;100386.00;5073533;28;20193;-58
2022/03/16 05:44:34;;;;;;;74.35;47.40;;;;;;;6.00;65.71;100390.22;5072848;28;20452;-58
2022/03/16 05:47:01;;;;;;;68.70;43.37;;;;;;;6.02;65.51;100369.88;5073333;28;20189;-58
2022/03/16 05:49:29;;;;;;;65.33;40.40;;;;;;;5.99;66.47;100372.28;5073240;28;20310;-58
2022/03/16 05:51:56;;;;;;;62.50;41.23;;;;;;;6.00;65.80;100371.47;5073227;28;20230;-58
2022/03/16 05:54:23;;;;;;;65.73;40.70;;;;;;;6.04;65.50;100371.72;5073133;28;20197;-58
2022/03/16 05:56:50;;;;;;;70.37;41.70;;;;;;;6.11;65.35;100366.09;5072966;28;20279;-58
2022/03/16 05:59:17;;;;;;;69.80;40.93;;;;;;;6.11;64.49;100380.53;5072887;28;20710;-58
2022/03/16 06:01:44;;;;;;;74.37;45.37;;;;;;;6.12;65.74;100385.72;5073165;28;20685;-58
2022/03/16 06:04:11;;;;;;;73.50;44.07;;;;;;;6.07;66.61;100371.84;5073253;28;20195;-58
2022/03/16 06:06:39;;;;;;;80.13;43.33;;;;;;;6.01;66.24;100365.59;5072934;28;20190;-60
2022/03/16 06:09:06;;;;;;;72.27;43.93;;;;;;;5.95;67.41;100376.38;5072876;28;20200;-60
2022/03/16 06:11:32;;;;;;;85.13;46.37;;;;;;;5.90;67.47;100367.63;5073110;28;20228;-59
2022/03/16 06:13:59;;;;;;;85.38;55.30;;;;;;;5.86;67.54;100370.81;5072134;28;20433;-60
2022/03/16 06:16:26;;;;;;;86.33;48.77;;;;;;;6.01;67.56;100374.13;5072728;28;20319;-59
2022/03/16 06:18:53;;;;;;;64.17;44.00;;;;;;;6.04;67.05;100370.84;5072908;28;20200;-60
2022/03/16 06:21:20;;;;;;;79.38;47.17;;;;;;;6.06;66.75;100375.22;5072498;28;20881;-60
2022/03/16 06:23:48;;;;;;;83.90;46.87;;;;;;;6.00;67.31;100381.69;5072508;28;20208;-60
2022/03/16 06:26:15;;;;;;;74.83;44.60;;;;;;;5.93;67.89;100370.31;5072731;28;20215;-59
2022/03/16 06:28:42;;;;;;;70.80;42.47;;;;;;;5.92;68.32;100366.91;5072495;28;20274;-60
2022/03/16 06:31:09;;;;;;;71.83;44.40;;;;;;;5.90;69.01;100367.63;5072244;28;20215;-60
2022/03/16 06:33:36;;;;;;;72.50;44.03;;;;;;;5.96;68.35;100370.44;5072251;28;20207;-59
2022/03/16 06:36:03;;;;;;;77.83;46.77;;;;;;;5.93;68.70;100355.03;5072271;28;20220;-59
2022/03/16 06:38:30;;;;;;;74.40;45.23;;;;;;;5.90;67.77;100349.78;5072378;28;20214;-59
2022/03/16 06:40:58;;;;;;;83.23;47.53;;;;;;;5.91;68.69;100348.94;5077423;28;20192;-60
2022/03/16 06:43:25;;;;;;;91.40;48.70;;;;;;;5.97;68.59;100364.56;5080980;28;20681;-59
2022/03/16 06:45:52;;;;;;;78.87;48.63;;;;;;;6.00;68.45;100362.16;5083440;28;20201;-59
2022/03/16 06:48:22;;;;;;;99.07;51.77;;;;;;;6.00;67.82;100363.81;5077850;28;20188;-59
2022/03/16 06:50:49;;;;;;;100.57;57.92;;;;;;;5.99;67.56;100359.53;5082323;28;20447;-59
2022/03/16 06:53:16;;;;;;;124.77;72.73;;;;;;;6.02;68.24;100350.34;5079925;28;20206;-59
2022/03/16 06:55:43;;;;;;;114.93;72.57;;;;;;;5.99;67.89;100351.91;5071992;28;21026;-60
2022/03/16 06:58:11;;;;;;;111.17;63.73;;;;;;;6.00;69.04;100344.31;5072287;28;20250;-59
2022/03/16 07:00:38;;;;;;;86.30;53.13;;;;;;;6.00;67.76;100339.19;5072131;28;20588;-60
2022/03/16 07:03:06;;;;;;;85.97;48.23;;;;;;;6.03;67.71;100339.34;5077310;28;20671;-60
2022/03/16 07:05:35;;;;;;;77.37;47.13;;;;;;;6.14;68.10;100347.50;5080912;28;20202;-59
2022/03/16 07:08:04;;;;;;;81.23;46.30;;;;;;;6.07;68.14;100338.66;5069333;28;20314;-59
2022/03/16 07:10:32;;;;;;;79.00;47.03;;;;;;;6.03;67.74;100344.44;5071405;28;20301;-59
2022/03/16 07:13:00;;;;;;;95.90;53.93;;;;;;;5.91;68.48;100347.28;5071490;28;20201;-59
2022/03/16 07:15:30;;;;;;;82.57;52.83;;;;;;;5.68;69.17;100329.97;5071842;28;20268;-59
2022/03/16 07:17:57;;;;;;;99.00;63.10;;;;;;;5.48;70.43;100345.06;5071684;28;20188;-59
2022/03/16 07:20:24;;;;;;;113.80;68.33;;;;;;;5.45;71.00;100350.00;5071793;28;20279;-59
2022/03/16 07:23:05;;;;;;;118.03;71.53;;;;;;;5.43;71.40;100338.88;5071538;28;20214;-59
2022/03/16 07:25:32;;;;;;;109.13;65.60;;;;;;;5.49;70.98;100339.19;5071406;28;20275;-57
2022/03/16 07:27:58;;;;;;;121.25;79.18;;;;;;;5.63;71.65;100328.00;5070725;28;20456;-57
2022/03/16 07:30:25;;;;;;;90.60;59.30;;;;;;;5.53;71.13;100328.34;5071534;28;20654;-58
2022/03/16 07:32:54;;;;;;;96.00;57.47;;;;;;;5.51;71.57;100340.13;5071163;28;20212;-58
2022/03/16 07:35:26;;;;;;;93.03;57.70;;;;;;;5.61;71.00;100338.09;5071273;28;20204;-58
2022/03/16 07:37:54;;;;;;;86.72;63.33;;;;;;;5.67;70.66;100332.44;5069901;28;20437;-58
2022/03/16 07:40:21;;;;;;;88.23;56.23;;;;;;;5.77;70.24;100332.06;5070936;28;20276;-58
2022/03/16 07:42:49;;;;;;;92.97;56.13;;;;;;;5.83;71.22;100333.25;5071074;28;20216;-58
2022/03/16 07:45:18;;;;;;;94.30;58.87;;;;;;;5.85;70.43;100328.28;5071066;28;20285;-58
2022/03/16 07:47:46;;;;;;;93.30;60.43;;;;;;;5.99;70.55;100327.22;5071230;28;20192;-60
2022/03/16 07:50:14;;;;;;;95.40;61.27;;;;;;;6.12;69.96;100327.03;5071054;28;20193;-58
2022/03/16 07:52:41;;;;;;;105.70;65.27;;;;;;;6.23;68.84;100330.97;5070812;28;20221;-60
2022/03/16 07:55:09;;;;;;;96.63;66.80;;;;;;;6.36;68.53;100325.63;5070719;28;20192;-58
2022/03/16 07:57:36;;;;;;;103.33;62.57;;;;;;;6.44;66.85;100328.50;5079977;28;20246;-58
2022/03/16 08:00:04;;;;;;;109.97;66.27;;;;;;;6.54;67.96;100325.56;5079256;28;20222;-58
2022/03/16 08:02:30;;;;;;;96.10;63.57;;;;;;;6.68;66.83;100324.50;5077764;28;20948;-58
2022/03/16 08:05:00;;;;;;;82.63;52.67;;;;;;;6.87;65.38;100326.19;5070713;28;20665;-58
2022/03/16 08:07:29;;;;;;;75.80;45.00;;;;;;;7.03;65.40;100320.97;5070530;28;20197;-58
2022/03/16 08:09:56;;;;;;;83.07;48.90;;;;;;;7.10;64.90;100326.41;5070552;28;21012;-58
2022/03/16 08:12:23;;;;;;;80.37;45.37;;;;;;;6.83;64.40;100324.31;5070654;28;20222;-59
2022/03/16 08:14:50;;;;;;;68.00;45.13;;;;;;;6.94;64.66;100329.09;5070632;28;20769;-59
2022/03/16 08:17:17;;;;;;;69.43;39.40;;;;;;;7.06;64.57;100328.75;5070774;28;20202;-59
2022/03/16 08:19:45;;;;;;;74.47;38.47;;;;;;;7.14;63.80;100327.41;5070325;28;20196;-60
2022/03/16 08:22:12;;;;;;;48.67;36.33;;;;;;;7.31;63.66;100323.88;5070343;28;20194;-59
2022/03/16 08:24:40;;;;;;;51.40;34.83;;;;;;;7.34;62.74;100321.44;5070380;28;20198;-59
2022/03/16 08:27:07;;;;;;;51.47;34.37;;;;;;;7.43;62.46;100316.72;5069965;28;20282;-59
2022/03/16 08:29:34;;;;;;;52.40;33.30;;;;;;;7.43;62.24;100326.06;5078377;28;20255;-58
2022/03/16 08:32:03;;;;;;;50.77;34.73;;;;;;;7.58;62.17;100311.38;5070030;28;20741;-58
2022/03/16 08:34:30;;;;;;;49.57;34.03;;;;;;;7.68;61.55;100311.81;5070435;28;20555;-59
2022/03/16 08:36:58;;;;;;;61.47;33.07;;;;;;;7.82;60.59;100312.38;5070016;28;20217;-57
2022/03/16 08:39:25;;;;;;;60.70;33.80;;;;;;;7.85;60.51;100307.38;5069793;28;20559;-58
2022/03/16 08:41:54;;;;;;;57.13;31.47;;;;;;;8.03;59.62;100304.66;5069616;28;20189;-57
2022/03/16 08:44:22;;;;;;;40.83;30.23;;;;;;;8.13;58.57;100306.78;5069763;28;20202;-57
2022/03/16 08:46:50;;;;;;;54.75;32.97;;;;;;;8.01;58.31;100314.84;5069010;28;20448;-58
2022/03/16 08:49:17;;;;;;;42.53;29.93;;;;;;;8.19;57.26;100304.44;5070091;28;20259;-58
2022/03/16 08:51:44;;;;;;;38.03;28.13;;;;;;;8.32;56.18;100302.44;5069643;28;20217;-58
2022/03/16 08:54:11;;;;;;;43.83;30.40;;;;;;;8.43;55.64;100295.19;5068641;28;20209;-57
2022/03/16 08:56:38;;;;;;;43.03;30.87;;;;;;;8.59;55.51;100297.50;5069309;28;20297;-58
2022/03/16 08:59:06;;;;;;;48.67;30.57;;;;;;;8.59;55.40;100287.25;5070630;28;20222;-58
2022/03/16 09:01:33;;;;;;;39.70;28.77;;;;;;;8.65;55.40;100297.69;5066241;28;20195;-57
2022/03/16 09:04:01;;;;;;;44.90;28.63;;;;;;;8.57;54.89;100298.25;5068569;28;20195;-58
2022/03/16 09:06:29;;;;;;;44.40;30.27;;;;;;;8.58;55.10;100287.16;5079406;28;20189;-59
2022/03/16 09:08:56;;;;;;;49.50;29.23;;;;;;;8.74;54.83;100292.91;5079873;28;20674;-58
2022/03/16 09:11:23;;;;;;;43.67;27.43;;;;;;;8.82;54.06;100296.63;5078866;28;20284;-58
2022/03/16 09:13:49;;;;;;;43.53;27.63;;;;;;;8.93;53.70;100306.41;5083769;28;20190;-59
2022/03/16 09:16:18;;;;;;;42.80;30.80;;;;;;;8.94;53.81;100303.88;5074770;28;20202;-58
2022/03/16 09:18:47;;;;;;;51.20;32.03;;;;;;;9.03;53.91;100305.91;5073467;28;20211;-57
2022/03/16 09:21:13;;;;;;;54.83;33.27;;;;;;;9.10;53.47;100312.97;5073663;28;20206;-58
2022/03/16 09:23:40;;;;;;;55.67;40.97;;;;;;;9.15;54.06;100312.31;5072659;28;20464;-58
2022/03/16 09:26:07;;;;;;;55.63;36.50;;;;;;;9.25;53.44;100303.25;5073643;28;20234;-58
2022/03/16 09:28:34;;;;;;;50.80;34.53;;;;;;;9.32;53.79;100293.25;5073400;28;20188;-57
2022/03/16 09:31:01;;;;;;;51.77;33.77;;;;;;;9.39;53.43;100296.91;5073447;28;20779;-57
2022/03/16 09:33:30;;;;;;;47.77;35.03;;;;;;;9.35;53.79;100287.34;5072957;28;20225;-58
2022/03/16 09:35:57;;;;;;;52.27;34.37;;;;;;;9.09;54.04;100267.66;5073503;28;20201;-57
2022/03/16 09:38:24;;;;;;;50.13;33.30;;;;;;;9.40;52.85;100285.81;5072275;28;20194;-58
2022/03/16 09:40:54;;;;;;;41.23;30.83;;;;;;;9.30;52.71;100248.75;5072825;28;20207;-58
2022/03/16 09:43:23;;;;;;;49.73;31.30;;;;;;;9.61;52.70;100277.97;5073490;28;20273;-58
2022/03/16 09:45:55;;;;;;;41.37;31.03;;;;;;;9.69;51.55;100273.94;5082360;28;20206;-58
2022/03/16 09:48:23;;;;;;;33.33;27.53;;;;;;;9.83;50.31;100276.09;5075817;28;20202;-58
2022/03/16 09:50:53;;;;;;;42.90;27.57;;;;;;;9.90;49.84;100267.78;5083646;28;20710;-58
2022/03/16 09:53:22;;;;;;;37.70;27.07;;;;;;;9.86;48.95;100271.06;5080978;28;20340;-59
2022/03/16 09:55:52;;;;;;;35.90;27.70;;;;;;;9.91;49.58;100268.66;5082403;28;20267;-58
2022/03/16 09:58:20;;;;;;;40.77;27.97;;;;;;;10.05;49.59;100255.41;5083049;28;20202;-59
2022/03/16 10:00:47;;;;;;;46.23;29.17;;;;;;;10.17;48.97;100249.81;5081696;28;20634;-58
2022/03/16 10:03:16;;;;;;;46.07;28.77;;;;;;;10.23;49.28;100252.56;5081776;28;20171;-59
2022/03/16 10:05:44;;;;;;;41.10;27.53;;;;;;;10.29;48.50;100252.75;5075977;28;20668;-58
2022/03/16 10:08:14;;;;;;;41.43;28.87;;;;;;;10.32;47.93;100251.97;5072312;28;20616;-60
2022/03/16 10:13:26;;;;;;;41.50;26.90;;;;;;;10.44;47.29;100237.78;5072153;28;20217;-60
2022/03/16 10:16:09;;;;;;;34.30;26.13;;;;;;;10.49;47.72;100233.63;5071976;28;20638;-60
2022/03/16 10:18:38;;;;;;;36.53;27.20;;;;;;;10.52;47.58;100235.44;5072262;28;20191;-60
2022/03/16 10:21:05;;;;;;;41.90;27.97;;;;;;;10.50;46.95;100234.50;5072048;28;20194;-60
2022/03/16 10:23:34;;;;;;;39.73;28.10;;;;;;;10.37;47.05;100235.88;5071622;28;20270;-61
2022/03/16 10:26:03;;;;;;;42.87;29.80;;;;;;;9.98;48.04;100232.97;5072152;28;20449;-61
2022/03/16 10:28:32;;;;;;;45.30;28.67;;;;;;;9.76;49.04;100232.25;5071901;28;20602;-60
2022/03/16 10:31:01;;;;;;;41.10;28.03;;;;;;;9.54;49.13;100229.81;5072333;28;20329;-60
2022/03/16 10:33:32;;;;;;;48.30;29.70;;;;;;;9.57;49.54;100227.38;5071934;28;20311;-60
2022/03/16 10:36:05;;;;;;;45.20;32.83;;;;;;;9.60;49.97;100230.03;5071818;28;20796;-60
2022/03/16 10:38:39;;;;;;;43.00;28.87;;;;;;;9.63;49.76;100230.13;5072475;28;20188;-60
2022/03/16 10:41:14;;;;;;;47.13;28.23;;;;;;;9.67;49.62;100226.84;5071682;28;20200;-61
2022/03/16 10:46:39;;;;;;;41.83;30.67;;;;;;;9.55;50.02;100218.75;5079058;28;20212;-61
2022/03/16 10:49:09;;;;;;;48.50;32.87;;;;;;;9.46;50.14;100206.50;5079143;28;20258;-61
2022/03/16 10:51:36;;;;;;;47.97;31.37;;;;;;;9.57;50.18;100209.41;5080412;28;20186;-61
2022/03/16 10:54:06;;;;;;;45.23;30.10;;;;;;;9.52;50.11;100206.72;5069938;28;20319;-61
2022/03/16 10:56:33;;;;;;;42.00;32.07;;;;;;;9.61;49.84;100199.31;5071806;28;20206;-60
2022/03/16 10:59:00;;;;;;;40.67;31.53;;;;;;;9.60;49.64;100189.84;5071535;28;20219;-61
2022/03/16 11:01:28;;;;;;;47.70;31.37;;;;;;;9.66;49.82;100192.63;5071687;28;20194;-60
2022/03/16 11:03:58;;;;;;;45.53;32.40;;;;;;;9.74;49.72;100190.28;5071437;28;20252;-61
2022/03/16 11:06:26;;;;;;;48.30;29.40;;;;;;;9.74;49.09;100192.84;5071402;28;20290;-59
2022/03/16 11:08:54;;;;;;;40.97;29.63;;;;;;;9.86;48.66;100198.38;5073807;28;20282;-60
2022/03/16 11:14:08;;;;;;;43.03;31.03;;;;;;;10.05;48.03;100185.25;5075506;28;20210;-60
2022/03/16 11:16:35;;;;;;;45.97;29.13;;;;;;;10.03;48.72;100186.88;5071460;28;20229;-60
2022/03/16 11:19:05;;;;;;;45.33;29.97;;;;;;;9.92;47.96;100160.91;5071268;28;20202;-60
2022/03/16 11:21:38;;;;;;;42.07;29.13;;;;;;;9.96;47.87;100184.97;5071117;28;20551;-61
2022/03/16 11:24:17;;;;;;;45.60;30.97;;;;;;;9.91;48.44;100172.00;5070920;28;20286;-61
2022/03/16 11:27:10;;;;;;;43.53;29.37;;;;;;;9.73;48.08;100181.72;5071177;28;20203;-60